createdAt,value
2022-12-10T00:01:30.449Z,26.27
2022-12-10T00:03:33.369Z,27.40
2022-12-10T00:05:36.669Z,28.25
2022-12-10T00:07:39.509Z,24.75
2022-12-10T00:09:42.329Z,29.23
2022-12-10T00:11:45.523Z,25.52
2022-12-10T00:13:49.943Z,24.85
2022-12-10T00:15:52.787Z,26.08
2022-12-10T00:17:57.037Z,26.63
2022-12-10T00:19:59.854Z,26.58
2022-12-10T00:22:02.572Z,25.02
2022-12-10T00:24:06.792Z,27.40
2022-12-10T00:26:11.417Z,27.95
2022-12-10T00:28:14.307Z,29.50
2022-12-10T00:30:17.579Z,24.80
2022-12-10T00:32:20.412Z,29.48
2022-12-10T00:34:25.426Z,27.15
2022-12-10T00:36:30.949Z,28.52
2022-12-10T00:38:35.384Z,31.23
2022-12-10T00:40:38.190Z,27.35
2022-12-10T00:42:41.000Z,29.02
2022-12-10T00:44:43.781Z,27.23
2022-12-10T00:46:46.733Z,30.25
2022-12-10T00:48:49.579Z,29.02
2022-12-10T00:51:02.597Z,29.88
2022-12-10T00:53:05.418Z,30.15
2022-12-10T00:55:09.058Z,28.85
2022-12-10T00:57:11.892Z,30.83
2022-12-10T00:59:14.689Z,32.80
2022-12-10T01:01:19.977Z,29.98
2022-12-10T01:03:22.818Z,29.65
2022-12-10T01:05:26.702Z,30.60
2022-12-10T01:07:30.922Z,30.38
2022-12-10T01:09:33.701Z,32.17
2022-12-10T01:11:39.048Z,33.25
2022-12-10T01:13:42.467Z,29.23
2022-12-10T01:15:45.309Z,30.40
2022-12-10T01:17:48.210Z,31.52
2022-12-10T01:19:51.125Z,27.40
2022-12-10T01:21:54.930Z,29.20
2022-12-10T01:24:00.210Z,33.90
2022-12-10T01:26:04.769Z,28.35
2022-12-10T01:28:07.551Z,30.10
2022-12-10T01:30:12.004Z,31.85
2022-12-10T01:32:14.799Z,30.77
2022-12-10T01:34:17.533Z,31.02
2022-12-10T01:36:22.870Z,30.27
2022-12-10T01:38:25.675Z,31.08
2022-12-10T01:40:31.344Z,33.70
2022-12-10T01:42:34.170Z,32.03
2022-12-10T01:45:02.023Z,32.00
2022-12-10T01:47:05.326Z,33.08
2022-12-10T01:49:11.017Z,31.90
2022-12-10T01:51:15.722Z,32.25
2022-12-10T01:53:18.683Z,33.08
2022-12-10T01:55:45.386Z,31.00
2022-12-10T01:57:49.901Z,31.17
2022-12-10T01:59:56.092Z,33.65
2022-12-10T02:02:08.068Z,31.73
2022-12-10T02:04:22.530Z,33.05
2022-12-10T02:06:44.105Z,36.77
2022-12-10T02:08:58.855Z,30.10
2022-12-10T02:11:14.613Z,35.88
2022-12-10T02:13:24.797Z,31.42
2022-12-10T02:15:32.500Z,32.55
2022-12-10T02:17:40.731Z,38.53
2022-12-10T02:20:02.126Z,34.92
2022-12-10T02:22:07.092Z,33.20
2022-12-10T02:24:16.203Z,39.92
2022-12-10T02:26:26.223Z,36.92
2022-12-10T02:28:39.042Z,32.67
2022-12-10T02:30:47.797Z,37.25
2022-12-10T02:32:52.864Z,37.17
2022-12-10T02:35:02.501Z,32.28
2022-12-10T02:37:15.131Z,35.22
2022-12-10T02:39:23.114Z,32.30
2022-12-10T02:41:35.003Z,33.97
2022-12-10T02:43:38.735Z,35.42
2022-12-10T02:45:45.602Z,35.05
2022-12-10T02:47:53.448Z,36.03
2022-12-10T02:49:58.647Z,33.55
2022-12-10T02:52:10.054Z,34.03
2022-12-10T02:54:49.175Z,36.95
2022-12-10T02:57:02.652Z,32.45
2022-12-10T02:59:18.790Z,34.78
2022-12-10T03:01:32.680Z,30.55
2022-12-10T03:03:45.341Z,34.00
2022-12-10T03:05:59.804Z,34.47
2022-12-10T03:08:10.570Z,35.95
2022-12-10T03:10:20.513Z,35.63
2022-12-10T03:12:30.897Z,35.80
2022-12-10T03:14:35.513Z,37.63
2022-12-10T03:16:44.542Z,34.00
2022-12-10T03:18:51.823Z,38.47
2022-12-10T03:20:58.980Z,33.53
2022-12-10T03:23:03.770Z,38.10
2022-12-10T03:25:08.717Z,36.67
2022-12-10T03:29:21.869Z,34.50
2022-12-10T03:31:25.766Z,32.80
2022-12-10T03:33:31.150Z,36.73
2022-12-10T03:35:35.225Z,33.10
2022-12-10T03:37:38.878Z,33.15
2022-12-10T03:39:43.318Z,32.42
2022-12-10T03:41:46.604Z,39.53
2022-12-10T03:43:57.271Z,34.13
2022-12-10T03:46:00.163Z,33.53
2022-12-10T03:48:02.993Z,37.47
2022-12-10T03:50:08.717Z,35.67
2022-12-10T03:52:12.181Z,35.88
2022-12-10T03:54:14.949Z,38.60
2022-12-10T03:56:17.858Z,35.35
2022-12-10T03:58:20.778Z,37.33
2022-12-10T04:00:23.622Z,32.53
2022-12-10T04:02:26.366Z,33.15
2022-12-10T04:04:29.362Z,32.17
2022-12-10T04:06:33.785Z,35.72
2022-12-10T04:08:36.241Z,35.95
2022-12-10T04:10:39.041Z,34.47
2022-12-10T04:12:41.920Z,36.05
2022-12-10T04:15:02.322Z,36.38
2022-12-10T04:17:04.143Z,33.65
2022-12-10T04:19:09.462Z,36.45
2022-12-10T04:21:38.968Z,36.35
2022-12-10T04:24:00.847Z,35.40
2022-12-10T04:26:35.999Z,39.53
2022-12-10T04:28:38.760Z,38.92
2022-12-10T04:30:41.568Z,35.08
2022-12-10T04:32:44.417Z,35.20
2022-12-10T04:34:47.337Z,36.95
2022-12-10T04:36:51.003Z,38.72
2022-12-10T04:38:55.163Z,38.63
2022-12-10T04:41:01.008Z,37.97
2022-12-10T04:43:03.773Z,36.90
2022-12-10T04:45:07.749Z,35.75
2022-12-10T04:47:12.130Z,39.00
2022-12-10T04:49:15.870Z,39.08
2022-12-10T04:51:18.629Z,38.90
2022-12-10T04:53:21.558Z,34.17
2022-12-10T04:55:25.698Z,35.60
2022-12-10T04:57:28.469Z,35.70
2022-12-10T04:59:31.475Z,37.30
2022-12-10T05:01:35.345Z,35.90
2022-12-10T05:03:38.723Z,34.17
2022-12-10T05:05:41.763Z,34.65
2022-12-10T05:07:44.725Z,35.65
2022-12-10T05:09:49.202Z,32.30
2022-12-10T05:11:53.850Z,34.72
2022-12-10T05:13:57.956Z,35.75
2022-12-10T05:16:03.757Z,35.70
2022-12-10T05:18:08.409Z,33.75
2022-12-10T05:20:12.160Z,33.70
2022-12-10T05:22:33.243Z,36.63
2022-12-10T05:24:36.400Z,33.00
2022-12-10T05:26:39.350Z,33.58
2022-12-10T05:28:45.734Z,32.53
2022-12-10T05:30:48.977Z,33.55
2022-12-10T05:32:51.854Z,33.80
2022-12-10T05:34:54.698Z,35.95
2022-12-10T05:36:57.797Z,32.13
2022-12-10T05:39:01.295Z,31.98
2022-12-10T05:41:04.535Z,34.63
2022-12-10T05:43:07.380Z,33.15
2022-12-10T05:45:12.242Z,31.55
2022-12-10T05:47:15.292Z,35.78
2022-12-10T05:49:18.130Z,33.08
2022-12-10T05:51:23.579Z,31.90
2022-12-10T05:53:26.842Z,31.50
2022-12-10T05:55:30.058Z,37.90
2022-12-10T05:57:32.883Z,30.85
2022-12-10T05:59:35.822Z,28.35
2022-12-10T06:01:40.076Z,32.47
2022-12-10T06:03:43.728Z,33.25
2022-12-10T06:05:46.518Z,33.65
2022-12-10T06:07:49.366Z,28.98
2022-12-10T06:09:53.644Z,32.83
2022-12-10T06:11:56.436Z,30.02
2022-12-10T06:13:59.997Z,27.40
2022-12-10T06:16:06.551Z,28.85
2022-12-10T06:18:11.177Z,28.95
2022-12-10T06:20:14.635Z,29.33
2022-12-10T06:22:17.859Z,35.90
2022-12-10T06:24:20.737Z,29.73
2022-12-10T06:26:27.292Z,28.75
2022-12-10T06:28:30.290Z,29.92
2022-12-10T06:30:34.595Z,32.70
2022-12-10T06:32:37.740Z,32.25
2022-12-10T06:34:43.107Z,31.42
2022-12-10T06:36:46.179Z,43.40
2022-12-10T06:38:50.131Z,31.75
2022-12-10T06:40:53.646Z,29.83
2022-12-10T06:42:56.489Z,29.13
2022-12-10T06:44:59.333Z,29.63
2022-12-10T06:47:02.096Z,28.67
2022-12-10T06:49:05.330Z,31.55
2022-12-10T06:51:10.428Z,30.08
2022-12-10T06:53:13.272Z,32.58
2022-12-10T06:55:16.220Z,35.88
2022-12-10T06:57:19.136Z,33.95
2022-12-10T06:59:22.293Z,30.27
2022-12-10T07:01:27.876Z,27.27
2022-12-10T07:03:30.705Z,29.75
2022-12-10T07:05:33.606Z,33.60
2022-12-10T07:07:38.554Z,30.48
2022-12-10T07:11:44.594Z,30.58
2022-12-10T07:13:48.192Z,31.40
2022-12-10T07:15:51.290Z,26.30
2022-12-10T07:17:54.224Z,29.25
2022-12-10T07:19:57.076Z,27.55
2022-12-10T07:22:00.020Z,27.75
2022-12-10T07:24:06.476Z,29.48
2022-12-10T07:26:09.331Z,25.98
2022-12-10T07:28:12.117Z,35.83
2022-12-10T07:30:15.590Z,25.67
2022-12-10T07:32:19.178Z,26.60
2022-12-10T07:34:22.032Z,25.60
2022-12-10T07:36:25.590Z,26.70
2022-12-10T07:38:28.523Z,25.77
2022-12-10T07:40:33.078Z,28.35
2022-12-10T07:42:35.980Z,26.85
2022-12-10T07:44:38.869Z,23.30
2022-12-10T07:46:42.152Z,26.10
2022-12-10T07:48:48.796Z,24.08
2022-12-10T07:50:58.686Z,21.30
2022-12-10T07:53:01.836Z,21.63
2022-12-10T07:55:05.354Z,22.92
2022-12-10T07:57:09.788Z,21.60
2022-12-10T07:59:12.793Z,20.95
2022-12-10T08:01:17.561Z,22.13
2022-12-10T08:05:24.725Z,21.58
2022-12-10T08:07:27.857Z,20.73
2022-12-10T08:09:31.127Z,20.42
2022-12-10T08:11:34.192Z,21.58
2022-12-10T08:13:39.590Z,21.63
2022-12-10T08:15:42.446Z,21.85
2022-12-10T08:17:45.302Z,22.33
2022-12-10T08:19:50.339Z,20.92
2022-12-10T08:23:56.473Z,19.70
2022-12-10T08:25:59.337Z,25.83
2022-12-10T08:28:03.935Z,19.60
2022-12-10T08:30:10.245Z,19.30
2022-12-10T08:32:13.275Z,19.35
2022-12-10T08:34:19.456Z,20.48
2022-12-10T08:36:23.276Z,23.30
2022-12-10T08:38:26.288Z,20.17
2022-12-10T08:40:29.082Z,20.17
2022-12-10T08:42:31.865Z,21.73
2022-12-10T08:44:34.674Z,18.77
2022-12-10T08:46:39.479Z,20.20
2022-12-10T08:48:42.711Z,24.67
2022-12-10T08:50:46.768Z,23.98
2022-12-10T08:52:49.736Z,21.43
2022-12-10T08:54:52.733Z,23.05
2022-12-10T08:56:55.863Z,19.85
2022-12-10T08:58:58.677Z,21.65
2022-12-10T09:01:02.484Z,21.13
2022-12-10T09:03:06.772Z,18.98
2022-12-10T09:05:10.177Z,28.95
2022-12-10T09:07:13.456Z,26.60
2022-12-10T09:09:16.380Z,19.67
2022-12-10T09:11:22.520Z,22.27
2022-12-10T09:13:27.961Z,21.35
2022-12-10T09:15:30.935Z,23.75
2022-12-10T09:17:33.886Z,21.20
2022-12-10T09:19:38.232Z,23.05
2022-12-10T09:21:41.209Z,20.15
2022-12-10T09:23:45.978Z,19.33
2022-12-10T09:25:48.811Z,20.58
2022-12-10T09:27:51.574Z,20.67
2022-12-10T09:29:54.371Z,20.08
2022-12-10T09:31:57.287Z,23.98
2022-12-10T09:34:00.265Z,22.35
2022-12-10T09:36:06.483Z,20.33
2022-12-10T09:38:09.318Z,18.98
2022-12-10T09:40:17.180Z,17.77
2022-12-10T09:42:34.321Z,19.23
2022-12-10T09:44:50.301Z,20.50
2022-12-10T09:46:56.844Z,17.88
2022-12-10T09:49:07.373Z,22.25
2022-12-10T09:51:18.297Z,21.17
2022-12-10T09:53:22.813Z,19.00
2022-12-10T09:55:33.494Z,21.88
2022-12-10T09:57:41.643Z,19.40
2022-12-10T09:59:48.329Z,18.13
2022-12-10T10:01:58.349Z,20.55
2022-12-10T10:04:01.211Z,21.77
2022-12-10T10:06:10.872Z,21.25
2022-12-10T10:08:24.033Z,21.13
2022-12-10T10:10:29.273Z,19.95
2022-12-10T10:12:35.273Z,19.48
2022-12-10T10:14:38.213Z,20.40
2022-12-10T10:16:47.346Z,22.92
2022-12-10T10:18:54.805Z,19.92
2022-12-10T10:20:58.418Z,21.33
2022-12-10T10:23:02.334Z,18.70
2022-12-10T10:25:07.293Z,21.02
2022-12-10T10:27:16.679Z,22.35
2022-12-10T10:29:22.429Z,21.70
2022-12-10T10:31:27.619Z,22.17
2022-12-10T10:33:30.402Z,21.17
2022-12-10T10:35:36.181Z,19.27
2022-12-10T10:37:43.593Z,26.50
2022-12-10T10:39:50.438Z,23.83
2022-12-10T10:41:59.873Z,19.33
2022-12-10T10:44:04.700Z,20.80
2022-12-10T10:46:14.412Z,20.58
2022-12-10T10:48:19.973Z,18.85
2022-12-10T10:50:26.413Z,21.80
2022-12-10T10:52:31.160Z,20.65
2022-12-10T10:54:36.273Z,17.88
2022-12-10T10:56:42.981Z,19.85
2022-12-10T10:58:55.651Z,17.05
2022-12-10T11:01:02.039Z,17.23
2022-12-10T11:03:09.252Z,20.33
2022-12-10T11:05:19.197Z,19.63
2022-12-10T11:07:27.406Z,19.95
2022-12-10T11:09:32.501Z,18.65
2022-12-10T11:13:39.843Z,18.88
2022-12-10T11:15:45.800Z,19.88
2022-12-10T11:17:50.466Z,18.73
2022-12-10T11:20:00.938Z,17.08
2022-12-10T11:22:18.770Z,19.23
2022-12-10T11:24:23.270Z,21.67
2022-12-10T11:28:56.906Z,16.70
2022-12-10T11:31:15.511Z,19.38
2022-12-10T11:33:28.162Z,17.58
2022-12-10T11:35:43.967Z,16.25
2022-12-10T11:37:54.377Z,17.75
2022-12-10T11:40:29.350Z,16.48
2022-12-10T11:42:44.846Z,16.80
2022-12-10T11:47:21.658Z,15.73
2022-12-10T11:49:34.815Z,16.42
2022-12-10T11:51:43.446Z,15.85
2022-12-10T11:54:24.463Z,19.50
2022-12-10T11:56:32.752Z,17.60
2022-12-10T11:58:51.489Z,15.50
2022-12-10T12:01:06.451Z,16.25
2022-12-10T12:05:42.983Z,18.00
2022-12-10T12:07:53.951Z,15.82
2022-12-10T12:10:16.525Z,16.20
2022-12-10T12:12:32.477Z,16.52
2022-12-10T12:14:41.993Z,16.63
2022-12-10T12:16:49.316Z,21.05
2022-12-10T12:19:00.969Z,15.98
2022-12-10T12:21:09.749Z,16.67
2022-12-10T12:23:17.740Z,15.90
2022-12-10T12:25:28.484Z,18.48
2022-12-10T12:27:37.870Z,18.95
2022-12-10T12:29:46.954Z,16.38
2022-12-10T12:31:59.388Z,17.83
2022-12-10T12:34:12.967Z,15.80
2022-12-10T12:36:20.593Z,16.92
2022-12-10T12:38:32.067Z,17.90
2022-12-10T12:40:39.175Z,14.77
2022-12-10T12:42:48.830Z,16.10
2022-12-10T12:45:01.990Z,16.85
2022-12-10T12:47:18.766Z,16.70
2022-12-10T12:49:28.387Z,17.63
2022-12-10T12:51:38.450Z,14.40
2022-12-10T12:53:41.672Z,15.25
2022-12-10T12:55:56.762Z,15.60
2022-12-10T12:58:17.162Z,15.25
2022-12-10T13:00:24.346Z,16.40
2022-12-10T13:02:48.692Z,14.98
2022-12-10T13:04:54.222Z,16.80
2022-12-10T13:07:29.904Z,14.88
2022-12-10T13:09:33.142Z,17.73
2022-12-10T13:11:38.007Z,16.50
2022-12-10T13:13:43.348Z,14.93
2022-12-10T13:15:46.365Z,16.45
2022-12-10T13:18:19.861Z,15.00
2022-12-10T13:20:36.630Z,17.65
2022-12-10T13:22:46.575Z,17.85
2022-12-10T13:25:08.924Z,16.65
2022-12-10T13:27:19.356Z,13.93
2022-12-10T13:29:27.778Z,15.65
2022-12-10T13:31:40.675Z,15.30
2022-12-10T13:33:50.583Z,16.70
2022-12-10T13:36:08.997Z,15.63
2022-12-10T13:38:22.286Z,16.15
2022-12-10T13:40:27.341Z,15.13
2022-12-10T13:42:51.921Z,16.67
2022-12-10T13:45:02.113Z,14.10
2022-12-10T13:47:29.389Z,15.32
2022-12-10T13:49:37.571Z,16.70
2022-12-10T13:51:56.446Z,14.95
2022-12-10T13:54:18.642Z,15.88
2022-12-10T13:56:30.092Z,19.83
2022-12-10T13:58:44.726Z,16.73
2022-12-10T14:00:59.046Z,16.25
2022-12-10T14:03:30.873Z,14.70
2022-12-10T14:05:44.737Z,18.92
2022-12-10T14:07:52.048Z,16.83
2022-12-10T14:09:56.993Z,15.27
2022-12-10T14:12:03.689Z,16.55
2022-12-10T14:14:12.519Z,15.65
2022-12-10T14:16:16.993Z,15.70
2022-12-10T14:18:20.017Z,19.40
2022-12-10T14:20:26.518Z,16.33
2022-12-10T14:22:33.886Z,14.82
2022-12-10T14:24:44.109Z,18.38
2022-12-10T14:26:47.009Z,15.60
2022-12-10T14:28:51.962Z,15.82
2022-12-10T14:33:01.708Z,16.98
2022-12-10T14:35:09.234Z,19.05
2022-12-10T14:37:15.759Z,16.80
2022-12-10T14:39:22.795Z,17.55
2022-12-10T14:41:30.178Z,18.73
2022-12-10T14:43:37.634Z,18.67
2022-12-10T14:45:46.005Z,19.08
2022-12-10T14:47:49.437Z,21.35
2022-12-10T14:49:54.760Z,18.67
2022-12-10T14:51:58.333Z,19.35
2022-12-10T14:54:01.457Z,20.98
2022-12-10T14:56:06.554Z,22.33
2022-12-10T14:58:19.528Z,22.73
2022-12-10T15:00:24.620Z,20.58
2022-12-10T15:02:31.416Z,22.83
2022-12-10T15:04:44.620Z,19.30
2022-12-10T15:06:48.404Z,19.42
2022-12-10T15:08:54.200Z,19.58
2022-12-10T15:11:00.020Z,21.60
2022-12-10T15:13:03.889Z,20.25
2022-12-10T15:15:14.846Z,21.08
2022-12-10T15:17:37.473Z,17.80
2022-12-10T15:19:40.696Z,19.17
2022-12-10T15:21:46.576Z,18.75
2022-12-10T15:23:49.706Z,18.77
2022-12-10T15:26:00.053Z,20.33
2022-12-10T15:28:03.334Z,16.75
2022-12-10T15:30:26.187Z,17.77
2022-12-10T15:32:30.419Z,16.90
2022-12-10T15:34:39.877Z,18.48
2022-12-10T15:36:45.867Z,18.98
2022-12-10T15:38:49.584Z,18.77
2022-12-10T15:40:52.842Z,17.83
2022-12-10T15:43:01.090Z,15.88
2022-12-10T15:45:13.012Z,17.33
2022-12-10T15:47:22.748Z,16.45
2022-12-10T15:49:25.845Z,18.52
2022-12-10T15:51:28.641Z,16.90
2022-12-10T15:53:39.388Z,14.57
2022-12-10T15:55:42.204Z,17.38
2022-12-10T15:57:49.524Z,15.38
2022-12-10T15:59:54.609Z,16.33
2022-12-10T16:01:58.278Z,16.48
2022-12-10T16:04:02.523Z,19.52
2022-12-10T16:06:05.479Z,17.17
2022-12-10T16:08:14.960Z,18.00
2022-12-10T16:10:20.406Z,17.77
2022-12-10T16:12:23.238Z,18.90
2022-12-10T16:14:26.214Z,15.73
2022-12-10T16:16:29.123Z,18.00
2022-12-10T16:18:34.474Z,18.85
2022-12-10T16:20:39.211Z,18.00
2022-12-10T16:22:41.991Z,19.75
2022-12-10T16:24:45.386Z,18.75
2022-12-10T16:26:48.408Z,18.33
2022-12-10T16:28:52.715Z,20.30
2022-12-10T16:30:57.517Z,21.38
2022-12-10T16:33:00.625Z,18.15
2022-12-10T16:35:03.483Z,17.65
2022-12-10T16:37:11.321Z,18.45
2022-12-10T16:39:15.137Z,19.85
2022-12-10T16:41:20.982Z,17.23
2022-12-10T16:43:26.597Z,15.88
2022-12-10T16:45:32.920Z,23.02
2022-12-10T16:47:35.671Z,18.38
2022-12-10T16:49:38.455Z,18.75
2022-12-10T16:51:44.017Z,19.70
2022-12-10T16:53:48.181Z,22.42
2022-12-10T16:55:51.129Z,18.90
2022-12-10T16:57:55.449Z,24.38
2022-12-10T16:59:58.188Z,19.60
2022-12-10T17:02:01.112Z,18.88
2022-12-10T17:04:04.295Z,19.23
2022-12-10T17:06:07.819Z,19.73
2022-12-10T17:08:11.052Z,19.45
2022-12-10T17:10:15.802Z,20.15
2022-12-10T17:12:18.237Z,17.10
2022-12-10T17:14:24.654Z,20.70
2022-12-10T17:16:27.675Z,18.20
2022-12-10T17:18:30.436Z,17.42
2022-12-10T17:20:33.499Z,20.67
2022-12-10T17:22:36.390Z,18.35
2022-12-10T17:24:39.354Z,21.73
2022-12-10T17:26:46.460Z,18.55
2022-12-10T17:28:49.491Z,19.52
2022-12-10T17:30:54.042Z,18.10
2022-12-10T17:32:57.018Z,23.30
2022-12-10T17:35:00.041Z,22.23
2022-12-10T17:37:03.048Z,21.48
2022-12-10T17:39:06.130Z,17.90
2022-12-10T17:41:11.131Z,21.02
2022-12-10T17:45:22.478Z,20.83
2022-12-10T17:47:28.954Z,21.45
2022-12-10T17:49:33.345Z,24.73
2022-12-10T17:51:36.240Z,22.75
2022-12-10T17:53:39.083Z,22.83
2022-12-10T17:55:48.189Z,49.35
2022-12-10T17:57:51.821Z,27.33
2022-12-10T17:59:56.035Z,27.15
2022-12-10T18:01:58.927Z,20.85
2022-12-10T18:04:01.943Z,22.83
2022-12-10T18:06:05.186Z,22.48
2022-12-10T18:08:08.349Z,24.33
2022-12-10T18:10:17.782Z,25.23
2022-12-10T18:12:20.664Z,23.08
2022-12-10T18:14:23.517Z,24.67
2022-12-10T18:16:31.991Z,26.58
2022-12-10T18:18:34.863Z,21.77
2022-12-10T18:20:40.595Z,23.58
2022-12-10T18:22:43.444Z,24.00
2022-12-10T18:24:46.468Z,25.02
2022-12-10T18:26:49.291Z,22.10
2022-12-10T18:28:56.366Z,25.48
2022-12-10T18:31:02.718Z,22.75
2022-12-10T18:33:07.125Z,24.50
2022-12-10T18:35:11.301Z,25.98
2022-12-10T18:37:14.538Z,28.88
2022-12-10T18:39:21.351Z,27.02
2022-12-10T18:41:24.868Z,28.48
2022-12-10T18:43:27.666Z,23.90
2022-12-10T18:45:30.472Z,25.00
2022-12-10T18:47:33.364Z,25.33
2022-12-10T18:49:38.246Z,24.23
2022-12-10T18:51:41.558Z,28.00
2022-12-10T18:53:46.003Z,24.48
2022-12-10T18:55:48.821Z,23.92
2022-12-10T18:58:02.493Z,27.50
2022-12-10T19:00:14.054Z,29.00
2022-12-10T19:02:16.932Z,25.92
2022-12-10T19:04:19.789Z,24.25
2022-12-10T19:06:26.540Z,23.13
2022-12-10T19:08:30.021Z,38.60
2022-12-10T19:10:33.227Z,35.17
2022-12-10T19:12:36.026Z,32.33
2022-12-10T19:14:38.811Z,28.33
2022-12-10T19:16:42.223Z,30.17
2022-12-10T19:18:46.244Z,26.80
2022-12-10T19:20:52.029Z,28.27
2022-12-10T19:23:00.104Z,24.58
2022-12-10T19:25:02.925Z,23.80
2022-12-10T19:27:05.830Z,26.13
2022-12-10T19:29:14.239Z,30.77
2022-12-10T19:31:17.080Z,27.15
2022-12-10T19:33:19.958Z,24.67
2022-12-10T19:35:26.320Z,26.80
2022-12-10T19:37:31.341Z,23.55
2022-12-10T19:41:38.525Z,26.20
2022-12-10T19:43:41.618Z,25.73
2022-12-10T19:45:44.443Z,26.70
2022-12-10T19:47:47.435Z,24.50
2022-12-10T19:49:50.355Z,28.63
2022-12-10T19:51:53.191Z,24.77
2022-12-10T19:53:56.243Z,24.90
2022-12-10T19:56:00.490Z,26.63
2022-12-10T19:58:03.306Z,24.15
2022-12-10T20:00:10.698Z,26.45
2022-12-10T20:02:13.524Z,25.75
2022-12-10T20:04:17.873Z,24.60
2022-12-10T20:06:24.920Z,28.67
2022-12-10T20:08:27.879Z,27.42
2022-12-10T20:10:31.237Z,26.58
2022-12-10T20:12:36.608Z,26.33
2022-12-10T20:14:39.827Z,24.63
2022-12-10T20:16:43.362Z,24.98
2022-12-10T20:18:46.700Z,22.83
2022-12-10T20:20:50.365Z,23.45
2022-12-10T20:22:53.295Z,23.00
2022-12-10T20:24:56.091Z,25.20
2022-12-10T20:26:58.908Z,26.48
2022-12-10T20:29:03.745Z,26.05
2022-12-10T20:31:07.027Z,27.25
2022-12-10T20:33:44.154Z,30.52
2022-12-10T20:35:33.415Z,28.23
2022-12-10T20:37:36.185Z,26.23
2022-12-10T20:39:38.992Z,31.35
2022-12-10T20:41:41.799Z,34.15
2022-12-10T20:43:45.289Z,35.08
2022-12-10T20:45:49.418Z,31.70
2022-12-10T20:47:52.258Z,34.28
2022-12-10T20:49:55.085Z,29.85
2022-12-10T20:51:57.827Z,26.58
2022-12-10T20:54:00.956Z,33.03
2022-12-10T20:56:03.844Z,32.22
2022-12-10T20:58:06.640Z,29.20
2022-12-10T21:00:16.757Z,29.80
2022-12-10T21:02:21.207Z,32.78
2022-12-10T21:04:24.483Z,29.80
2022-12-10T21:06:30.283Z,34.22
2022-12-10T21:08:33.960Z,29.85
2022-12-10T21:10:56.496Z,29.33
2022-12-10T21:12:59.359Z,30.00
2022-12-10T21:15:06.921Z,31.38
2022-12-10T21:17:12.434Z,29.88
2022-12-10T21:19:18.337Z,31.48
2022-12-10T21:21:22.215Z,30.00
2022-12-10T21:23:27.417Z,36.57
2022-12-10T21:25:32.877Z,38.05
2022-12-10T21:27:35.758Z,31.75
2022-12-10T21:29:38.575Z,30.13
2022-12-10T21:31:41.629Z,29.23
2022-12-10T21:33:44.841Z,32.17
2022-12-10T21:35:50.320Z,32.20
2022-12-10T21:37:53.095Z,31.58
2022-12-10T21:39:57.492Z,30.80
2022-12-10T21:42:17.959Z,35.03
2022-12-10T21:44:20.997Z,38.35
2022-12-10T21:46:24.144Z,37.17
2022-12-10T21:48:28.232Z,35.05
2022-12-10T21:50:31.816Z,34.63
2022-12-10T21:52:35.928Z,36.22
2022-12-10T21:54:38.725Z,38.15
2022-12-10T21:56:41.525Z,34.50
2022-12-10T21:58:44.571Z,32.67
2022-12-10T22:00:47.542Z,36.60
2022-12-10T22:02:50.382Z,33.38
2022-12-10T22:04:53.239Z,33.42
2022-12-10T22:06:55.990Z,38.65
2022-12-10T22:09:00.214Z,35.20
2022-12-10T22:11:05.934Z,34.40
2022-12-10T22:13:11.340Z,30.23
2022-12-10T22:15:15.104Z,31.08
2022-12-10T22:17:18.026Z,32.33
2022-12-10T22:19:20.803Z,32.90
2022-12-10T22:21:24.160Z,31.75
2022-12-10T22:23:28.418Z,31.00
2022-12-10T22:25:32.563Z,31.75
2022-12-10T22:27:35.712Z,31.52
2022-12-10T22:29:38.585Z,31.23
2022-12-10T22:31:42.121Z,31.58
2022-12-10T22:35:49.031Z,28.23
2022-12-10T22:37:52.326Z,31.95
2022-12-10T22:39:55.421Z,31.15
2022-12-10T22:41:59.653Z,32.38
2022-12-10T22:44:02.638Z,31.75
2022-12-10T22:46:05.900Z,31.83
2022-12-10T22:48:08.949Z,30.95
2022-12-10T22:50:12.277Z,33.15
2022-12-10T22:52:15.245Z,31.85
2022-12-10T22:54:18.122Z,31.73
2022-12-10T22:56:20.900Z,31.30
2022-12-10T22:58:25.105Z,30.73
2022-12-10T23:00:27.977Z,32.90
2022-12-10T23:02:30.869Z,30.63
2022-12-10T23:04:34.364Z,29.90
2022-12-10T23:06:37.239Z,31.10
2022-12-10T23:08:40.250Z,31.75
2022-12-10T23:10:43.360Z,31.25
2022-12-10T23:13:03.687Z,30.83
2022-12-10T23:15:09.294Z,29.55
2022-12-10T23:17:12.319Z,29.38
2022-12-10T23:19:15.383Z,30.77
2022-12-10T23:21:20.963Z,31.90
2022-12-10T23:23:23.852Z,30.77
2022-12-10T23:25:27.074Z,30.98
2022-12-10T23:27:29.912Z,30.38
2022-12-10T23:29:32.800Z,35.10
2022-12-10T23:31:37.281Z,29.27
2022-12-10T23:33:40.467Z,31.98
2022-12-10T23:35:44.197Z,31.02
2022-12-10T23:37:47.588Z,32.17
2022-12-10T23:39:50.607Z,30.98
2022-12-10T23:41:53.642Z,33.85
2022-12-10T23:43:57.573Z,31.02
2022-12-10T23:46:01.034Z,35.10
2022-12-10T23:48:05.818Z,30.73
2022-12-10T23:50:09.201Z,36.17
2022-12-10T23:52:12.008Z,34.28
2022-12-10T23:54:14.876Z,39.03
2022-12-10T23:56:19.939Z,35.28
2022-12-10T23:58:23.222Z,37.88
